Main page
METAR-TAF:

METAR-TAF

Airports :

Oil platform

P11-b, Netherlands

latitude: 52-21-36N, longitude: 3-20-30E, elevation: 24 m

Current weather observation

The report was made 21 minutes ago, at 16:25 UTC
Wind 29 kt from the East/Northeast
Temperature 5°C
Humidity 70%
Pressure 1008 hPa
Visibility 10 km or more
Broken clouds at a height of 2000 ft
Overcast at a height of 2400 ft

METAR: EHPG 201625Z AUTO 07029KT 9999 BKN020 OVC024 05/M00 Q1008 W///H///

Time: 17:46 (16:46 UTC)


TAF: missing

Weather observations and forecasts of more than 4000 airports (METAR and TAF reports).

The available stations are represented by yellow and red dots on the map.

Hover mouse over dot to see the name of the station.

Then click to see weather observations and forecasts.

To change the map : click on the green buttons with a black cross to zoom in, on the green button with a dash to zoom out, or on the green arrows for adjacent maps.


METAR-TAF: